Time;durP1;ratioP1;P1;durP2;ratioP2;P2;SDS_P1;SDS_P2;PMS_P1;PMS_P2;Temp;Humidity;BMP_temperature;BMP_pressure;BME280_temperature;BME280_humidity;BME280_pressure;Samples;Min_cycle;Max_cycle;Signal;HPM_P1;HPM_P2
2020/12/14 00:00:49;;;;;;;47.13;30.40;;;;;;;7.16;71.27;101043.97;6124252;28;20247;-53
2020/12/14 00:04:09;;;;;;;43.17;30.37;;;;;;;7.03;71.68;101036.97;6123449;28;20236;-54
2020/12/14 00:07:29;;;;;;;50.30;28.43;;;;;;;7.06;71.33;101042.19;6108524;29;20519;-56
2020/12/14 00:10:51;;;;;;;40.27;26.17;;;;;;;7.06;71.26;101040.44;6125972;28;20243;-57
2020/12/14 00:14:11;;;;;;;45.03;29.30;;;;;;;7.10;71.16;101037.03;6119384;28;20236;-56
2020/12/14 00:17:33;;;;;;;41.07;27.13;;;;;;;7.06;71.51;101055.13;6113260;28;20253;-56
2020/12/14 00:20:53;;;;;;;47.33;25.93;;;;;;;6.89;71.91;101045.47;6106108;28;20312;-55
2020/12/14 00:24:13;;;;;;;37.00;23.93;;;;;;;6.95;71.67;101047.25;6120676;28;20326;-55
2020/12/14 00:27:35;;;;;;;41.57;26.87;;;;;;;7.12;71.37;101060.34;6118583;28;20318;-54
2020/12/14 00:30:55;;;;;;;37.70;25.93;;;;;;;7.21;70.73;101057.84;6123023;28;20231;-56
2020/12/14 00:34:15;;;;;;;38.93;26.50;;;;;;;7.17;71.09;101065.56;6115432;28;20244;-53
2020/12/14 00:37:36;;;;;;;37.97;25.57;;;;;;;7.39;70.05;101066.63;6112748;28;20243;-56
2020/12/14 00:40:56;;;;;;;37.57;28.63;;;;;;;7.38;70.06;101064.88;6122242;28;20232;-57
2020/12/14 00:44:18;;;;;;;39.00;26.57;;;;;;;7.19;70.87;101051.78;6112352;28;20232;-55
2020/12/14 00:47:38;;;;;;;40.90;27.70;;;;;;;7.40;70.09;101050.22;6120110;28;20896;-56
2020/12/14 00:50:59;;;;;;;38.60;25.37;;;;;;;7.52;69.46;101049.44;6128191;28;20227;-56
2020/12/14 00:54:19;;;;;;;40.93;27.30;;;;;;;7.49;69.68;101050.28;6124080;28;20243;-55
2020/12/14 00:57:39;;;;;;;42.97;26.73;;;;;;;7.41;70.21;101057.16;6119593;28;20350;-56
2020/12/14 01:01:01;;;;;;;40.07;27.13;;;;;;;7.55;69.63;101065.03;6128309;28;20228;-57
2020/12/14 01:04:22;;;;;;;38.40;26.83;;;;;;;7.76;68.86;101059.97;6121751;28;20319;-57
2020/12/14 01:07:42;;;;;;;42.37;29.43;;;;;;;7.53;69.73;101054.63;6120336;28;20232;-57
2020/12/14 01:11:03;;;;;;;38.87;27.47;;;;;;;7.56;69.51;101064.16;6108399;28;20236;-55
2020/12/14 01:14:24;;;;;;;38.77;27.60;;;;;;;7.46;70.28;101050.25;6119263;28;20232;-53
2020/12/14 01:17:45;;;;;;;36.27;26.23;;;;;;;7.48;69.72;101033.00;6113418;28;20239;-55
2020/12/14 01:21:05;;;;;;;39.20;26.00;;;;;;;7.40;70.22;101011.34;6118431;28;20519;-51
2020/12/14 01:24:26;;;;;;;43.27;32.20;;;;;;;6.98;71.81;100990.31;6120532;28;20255;-56
2020/12/14 01:27:46;;;;;;;37.70;26.90;;;;;;;7.20;71.24;100974.94;6119182;28;20236;-55
2020/12/14 01:31:06;;;;;;;35.37;24.43;;;;;;;7.42;70.33;100981.13;6123140;28;20236;-56
2020/12/14 01:34:27;;;;;;;35.93;25.67;;;;;;;7.43;70.50;100982.88;6108875;28;20669;-53
2020/12/14 01:37:47;;;;;;;42.30;28.23;;;;;;;7.34;70.46;100977.63;6121512;28;20235;-56
2020/12/14 01:41:08;;;;;;;39.73;26.27;;;;;;;7.51;69.73;100981.19;6120649;28;20256;-55
2020/12/14 01:44:28;;;;;;;37.60;27.43;;;;;;;7.19;71.05;100968.91;6119661;28;20520;-56
2020/12/14 01:47:49;;;;;;;35.03;25.63;;;;;;;7.10;71.41;100974.88;6120098;28;20243;-57
2020/12/14 01:51:11;;;;;;;37.27;26.60;;;;;;;7.26;70.68;100970.66;6125262;28;20239;-55
2020/12/14 01:54:36;;;;;;;38.20;26.00;;;;;;;7.32;70.72;100968.97;6128449;28;20277;-58
2020/12/14 01:57:56;;;;;;;37.33;25.60;;;;;;;7.27;70.77;100962.06;6113996;28;20238;-54
2020/12/14 02:01:17;;;;;;;33.23;25.73;;;;;;;6.94;72.39;100956.59;6126402;28;20239;-57
2020/12/14 02:04:38;;;;;;;35.50;28.23;;;;;;;6.98;72.33;100960.94;6116664;28;21494;-56
2020/12/14 02:07:59;;;;;;;36.03;26.00;;;;;;;7.15;71.26;100951.59;6113728;28;20326;-55
2020/12/14 02:11:19;;;;;;;42.00;27.80;;;;;;;7.02;71.67;100950.66;6122397;28;20224;-55
2020/12/14 02:14:40;;;;;;;35.83;26.67;;;;;;;7.15;71.64;100948.13;6123440;28;20232;-56
2020/12/14 02:18:00;;;;;;;37.47;25.23;;;;;;;6.98;72.09;100948.88;6115074;28;20750;-54
2020/12/14 02:21:21;;;;;;;35.97;26.13;;;;;;;7.23;71.20;100955.13;6124816;28;20232;-56
2020/12/14 02:24:45;;;;;;;35.63;25.13;;;;;;;7.41;70.62;100953.50;6125421;28;20235;-56
2020/12/14 02:28:05;;;;;;;35.93;25.73;;;;;;;7.25;71.27;100958.59;6122710;28;20953;-56
2020/12/14 02:31:26;;;;;;;29.73;24.57;;;;;;;7.42;70.44;100955.22;6129033;28;20235;-57
2020/12/14 02:34:48;;;;;;;32.80;26.30;;;;;;;7.00;71.67;100964.41;6120442;28;20244;-57
2020/12/14 02:38:08;;;;;;;33.40;23.40;;;;;;;6.95;72.05;100968.72;6101296;28;20624;-53
2020/12/14 02:41:30;;;;;;;37.13;26.73;;;;;;;6.86;72.16;100954.84;6105951;28;20330;-57
2020/12/14 02:44:51;;;;;;;34.47;25.20;;;;;;;6.84;72.22;100943.59;6112406;28;20629;-57
2020/12/14 02:48:11;;;;;;;39.10;25.13;;;;;;;7.03;71.35;100935.97;6113796;28;20620;-53
2020/12/14 02:51:32;;;;;;;31.63;24.13;;;;;;;7.06;71.61;100928.22;6123233;28;20243;-54
2020/12/14 02:54:52;;;;;;;32.63;24.07;;;;;;;7.01;71.59;100933.34;6124948;28;20546;-57
2020/12/14 02:58:13;;;;;;;33.23;25.50;;;;;;;7.13;71.21;100917.03;6108915;28;20653;-55
2020/12/14 03:01:33;;;;;;;32.37;24.97;;;;;;;7.09;70.94;100925.66;6124647;28;20231;-53
2020/12/14 03:04:54;;;;;;;33.03;24.87;;;;;;;7.27;70.29;100920.59;6126058;28;20236;-52
2020/12/14 03:08:15;;;;;;;32.33;23.07;;;;;;;7.09;70.62;100917.88;6109312;28;20617;-54
2020/12/14 03:11:35;;;;;;;31.30;23.17;;;;;;;7.06;70.85;100915.28;6112948;28;20495;-54
2020/12/14 03:14:56;;;;;;;29.20;21.63;;;;;;;7.10;70.55;100911.84;6124649;28;20237;-57
2020/12/14 03:18:17;;;;;;;26.60;21.77;;;;;;;7.23;70.03;100924.03;6116324;28;20620;-54
2020/12/14 03:21:38;;;;;;;29.07;23.43;;;;;;;6.96;70.86;100923.81;6128101;28;20584;-57
2020/12/14 03:24:59;;;;;;;29.03;22.83;;;;;;;7.04;70.60;100917.84;6119957;28;20224;-55
2020/12/14 03:28:19;;;;;;;29.63;21.83;;;;;;;7.16;70.07;100911.88;6121435;28;20239;-56
2020/12/14 03:31:41;;;;;;;27.40;21.23;;;;;;;7.15;70.22;100910.13;6126410;28;20224;-53
2020/12/14 03:35:01;;;;;;;27.33;21.50;;;;;;;6.89;70.59;100916.00;6113878;28;20244;-57
2020/12/14 03:38:21;;;;;;;27.07;21.53;;;;;;;6.96;70.68;100903.09;6121992;28;20231;-55
2020/12/14 03:41:42;;;;;;;28.07;21.47;;;;;;;6.95;70.64;100898.78;6113769;28;20554;-54
2020/12/14 03:45:03;;;;;;;29.77;21.87;;;;;;;7.28;69.44;100895.56;6119319;28;20256;-55
2020/12/14 03:48:24;;;;;;;26.50;21.07;;;;;;;7.09;70.17;100879.91;6111510;28;20243;-56
2020/12/14 03:51:45;;;;;;;28.30;20.73;;;;;;;7.15;69.68;100879.06;6124258;28;20272;-56
2020/12/14 03:55:05;;;;;;;27.07;21.83;;;;;;;7.14;69.42;100879.94;6125121;28;20322;-54
2020/12/14 03:58:26;;;;;;;25.40;20.07;;;;;;;7.08;69.72;100882.50;6122300;28;20239;-57
2020/12/14 04:01:46;;;;;;;22.37;19.13;;;;;;;7.15;69.73;100867.84;6124005;28;20227;-56
2020/12/14 04:05:07;;;;;;;21.37;18.20;;;;;;;7.20;69.26;100866.16;6130839;28;20758;-56
2020/12/14 04:08:28;;;;;;;28.17;20.33;;;;;;;7.03;69.53;100858.28;6120386;28;20660;-57
2020/12/14 04:11:48;;;;;;;21.93;18.23;;;;;;;6.93;69.96;100869.44;6128039;28;20227;-55
2020/12/14 04:15:08;;;;;;;23.00;18.53;;;;;;;6.99;69.84;100878.09;6117760;28;20264;-56
2020/12/14 04:18:29;;;;;;;20.20;17.87;;;;;;;6.90;70.26;100889.28;6104368;28;20227;-57
2020/12/14 04:21:50;;;;;;;19.47;16.73;;;;;;;7.11;69.53;100877.31;6121329;28;20232;-56
2020/12/14 04:25:11;;;;;;;21.93;18.37;;;;;;;7.14;69.12;100881.66;6127161;28;20220;-56
2020/12/14 04:28:32;;;;;;;21.03;16.17;;;;;;;6.86;69.84;100884.06;6114438;28;20618;-54
2020/12/14 04:31:52;;;;;;;19.17;16.73;;;;;;;6.95;69.75;100891.03;6121361;28;20232;-55
2020/12/14 04:35:13;;;;;;;19.27;16.93;;;;;;;6.70;70.40;100896.00;6129007;28;20236;-53
2020/12/14 04:38:34;;;;;;;20.80;17.53;;;;;;;6.95;69.67;100903.97;6118619;28;20243;-56
2020/12/14 04:41:56;;;;;;;18.10;15.83;;;;;;;7.02;68.90;100903.19;6122191;28;20236;-52
2020/12/14 04:45:17;;;;;;;18.70;16.23;;;;;;;7.05;68.91;100896.25;6124783;28;20593;-57
2020/12/14 04:48:38;;;;;;;16.23;14.50;;;;;;;6.80;69.65;100890.03;6117271;28;20322;-56
2020/12/14 04:51:58;;;;;;;17.30;13.47;;;;;;;7.03;69.15;100895.38;6119827;28;20247;-59
2020/12/14 04:55:21;;;;;;;19.27;15.53;;;;;;;7.16;68.76;100883.41;6104914;28;20237;-56
2020/12/14 04:58:43;;;;;;;18.37;14.07;;;;;;;7.09;68.68;100885.09;6120931;28;20224;-53
2020/12/14 05:02:05;;;;;;;19.50;15.93;;;;;;;6.96;68.98;100878.09;6098169;28;20258;-56
2020/12/14 05:05:27;;;;;;;17.70;15.20;;;;;;;6.79;69.63;100883.16;6120729;28;20243;-57
2020/12/14 05:08:48;;;;;;;17.70;13.97;;;;;;;7.02;68.93;100857.41;6123188;28;20231;-54
2020/12/14 05:12:20;;;;;;;19.23;14.40;;;;;;;6.97;68.84;100850.47;6120280;28;20322;-58
2020/12/14 05:15:41;;;;;;;17.83;15.60;;;;;;;6.92;68.96;100855.63;6111310;28;20235;-57
2020/12/14 05:19:16;;;;;;;18.30;14.33;;;;;;;7.14;68.50;100854.03;6115164;28;20231;-54
2020/12/14 05:22:38;;;;;;;17.90;14.83;;;;;;;6.76;69.32;100856.38;6107399;28;20493;-56
2020/12/14 05:26:04;;;;;;;16.67;12.97;;;;;;;6.83;69.24;100856.44;6123777;28;20315;-53
2020/12/14 05:29:28;;;;;;;17.93;13.73;;;;;;;6.92;68.69;100849.56;6125471;28;20259;-54
2020/12/14 05:32:59;;;;;;;16.93;15.03;;;;;;;7.03;68.30;100842.75;6111364;28;20543;-57
2020/12/14 05:36:19;;;;;;;17.27;13.30;;;;;;;7.07;68.10;100844.50;6122431;28;20239;-57
2020/12/14 05:39:40;;;;;;;17.17;14.57;;;;;;;7.16;67.89;100847.13;6119081;28;20227;-56
2020/12/14 05:43:07;;;;;;;13.43;12.03;;;;;;;6.96;68.12;100843.56;6115882;28;20231;-55
2020/12/14 05:46:33;;;;;;;15.13;12.63;;;;;;;6.77;68.26;100842.59;6134040;28;20224;-56
2020/12/14 05:49:55;;;;;;;13.20;11.87;;;;;;;6.66;69.22;100840.78;6116768;28;20236;-55
2020/12/14 05:53:19;;;;;;;14.33;12.63;;;;;;;6.88;68.29;100833.16;6118940;28;20238;-54
2020/12/14 05:56:43;;;;;;;14.13;11.87;;;;;;;7.09;67.85;100835.91;6119907;28;20240;-56
2020/12/14 06:00:07;;;;;;;13.83;12.37;;;;;;;6.86;68.63;100833.16;6122600;28;20228;-56
2020/12/14 06:03:28;;;;;;;14.03;12.10;;;;;;;6.76;68.51;100844.28;6114591;28;20216;-54
2020/12/14 06:07:01;;;;;;;13.13;11.77;;;;;;;7.08;67.71;100843.66;6116402;28;20335;-56
2020/12/14 06:10:31;;;;;;;12.50;11.20;;;;;;;6.93;68.12;100835.78;6114216;28;20239;-58
2020/12/14 06:13:55;;;;;;;14.27;11.50;;;;;;;7.22;67.39;100844.56;6112335;28;20247;-56
2020/12/14 06:17:19;;;;;;;12.77;11.03;;;;;;;6.98;67.99;100839.25;6119626;28;20715;-54
2020/12/14 06:20:40;;;;;;;13.50;10.97;;;;;;;7.06;67.62;100841.03;6120408;28;20245;-57
2020/12/14 06:24:05;;;;;;;11.97;10.67;;;;;;;6.99;67.78;100846.19;6119614;28;20532;-52
2020/12/14 06:27:27;;;;;;;14.77;10.77;;;;;;;6.67;68.43;100833.91;6106222;28;20240;-53
2020/12/14 06:30:53;;;;;;;12.37;10.87;;;;;;;6.80;68.33;100827.06;6137284;28;20240;-55
2020/12/14 06:34:38;;;;;;;11.80;10.53;;;;;;;6.83;68.16;100824.50;6114514;28;20232;-57
2020/12/14 06:37:59;;;;;;;14.50;12.13;;;;;;;6.86;68.19;100822.81;6113545;28;20491;-52
2020/12/14 06:41:21;;;;;;;16.23;10.27;;;;;;;6.87;68.18;100813.31;6119547;28;20236;-55
2020/12/14 06:45:10;;;;;;;12.70;11.40;;;;;;;7.02;67.70;100805.63;6118395;28;20221;-55
2020/12/14 06:48:52;;;;;;;13.40;10.57;;;;;;;6.82;68.33;100796.88;6108447;28;20236;-54
2020/12/14 06:52:14;;;;;;;12.60;10.20;;;;;;;7.01;67.52;100803.03;6108274;28;20317;-54
2020/12/14 06:55:42;;;;;;;14.23;11.30;;;;;;;7.14;67.33;100804.81;6118301;28;20617;-56
2020/12/14 06:59:26;;;;;;;11.73;10.57;;;;;;;7.21;66.92;100796.25;6118026;28;20239;-55
2020/12/14 07:02:47;;;;;;;12.57;11.27;;;;;;;7.16;66.87;100800.53;6111053;28;20852;-55
2020/12/14 07:06:07;;;;;;;12.83;11.43;;;;;;;7.08;67.52;100815.16;6118566;28;20318;-54
2020/12/14 07:09:29;;;;;;;14.07;10.47;;;;;;;7.12;66.96;100806.53;6124254;28;20335;-56
2020/12/14 07:12:50;;;;;;;12.20;10.97;;;;;;;6.87;67.42;100805.53;6114387;28;20625;-57
2020/12/14 07:16:12;;;;;;;13.47;11.50;;;;;;;7.09;67.11;100796.16;6131739;28;20254;-55
2020/12/14 07:19:36;;;;;;;11.23;9.63;;;;;;;7.18;66.74;100801.38;6127733;28;20258;-57
2020/12/14 07:23:01;;;;;;;11.57;9.37;;;;;;;7.36;66.26;100802.31;6112162;28;20259;-57
2020/12/14 07:26:21;;;;;;;11.77;10.00;;;;;;;7.34;66.16;100804.91;6116318;28;20633;-56
2020/12/14 07:29:42;;;;;;;11.70;10.23;;;;;;;7.35;65.96;100810.94;6115250;28;20259;-57
2020/12/14 07:33:03;;;;;;;11.40;10.17;;;;;;;7.20;66.50;100804.00;6114677;28;20231;-57
2020/12/14 07:36:25;;;;;;;10.00;8.80;;;;;;;7.41;65.84;100814.44;6122569;28;20232;-56
2020/12/14 07:39:46;;;;;;;11.47;9.83;;;;;;;7.32;66.04;100806.63;6116902;28;20239;-56
2020/12/14 07:43:07;;;;;;;12.10;10.80;;;;;;;7.29;66.20;100810.09;6117922;28;20231;-57
2020/12/14 07:46:30;;;;;;;10.97;9.87;;;;;;;7.34;66.01;100810.09;6116659;28;20941;-56
2020/12/14 07:50:05;;;;;;;13.83;10.90;;;;;;;7.44;65.94;100831.72;6117575;28;20228;-56
2020/12/14 07:53:26;;;;;;;11.00;9.87;;;;;;;7.53;65.42;100829.16;6110688;28;20271;-55
2020/12/14 07:56:52;;;;;;;14.43;10.67;;;;;;;7.33;65.90;100830.81;6115103;28;20240;-57
2020/12/14 08:00:14;;;;;;;10.83;9.03;;;;;;;7.27;66.49;100837.69;6126458;28;20224;-55
2020/12/14 08:03:34;;;;;;;10.70;9.60;;;;;;;7.22;66.74;100833.34;6120157;28;20340;-54
2020/12/14 08:06:56;;;;;;;10.10;7.90;;;;;;;7.14;66.42;100830.72;6124562;28;20232;-57
2020/12/14 08:10:18;;;;;;;10.60;9.47;;;;;;;7.49;65.81;100812.75;6115742;28;20235;-57
2020/12/14 08:13:39;;;;;;;10.90;9.73;;;;;;;7.33;65.72;100821.31;6115962;28;20256;-58
2020/12/14 08:17:00;;;;;;;9.63;8.53;;;;;;;7.39;66.11;100816.16;6123794;28;20499;-58
2020/12/14 08:20:26;;;;;;;9.30;8.37;;;;;;;7.63;65.56;100810.19;6106790;28;20577;-56
2020/12/14 08:23:47;;;;;;;9.00;8.10;;;;;;;7.65;65.31;100805.00;6115948;28;20224;-58
2020/12/14 08:27:10;;;;;;;9.97;8.10;;;;;;;7.18;66.57;100796.22;6117160;28;20236;-57
2020/12/14 08:30:31;;;;;;;10.40;8.17;;;;;;;7.25;66.54;100787.63;6112252;28;20239;-53
2020/12/14 08:33:53;;;;;;;9.27;7.97;;;;;;;7.08;66.95;100799.63;6103220;28;21164;-55
2020/12/14 08:37:18;;;;;;;9.17;8.23;;;;;;;7.23;66.76;100801.41;6108814;28;20247;-57
2020/12/14 08:40:39;;;;;;;10.37;8.97;;;;;;;7.25;66.32;100808.34;6102725;28;20240;-57
2020/12/14 08:44:01;;;;;;;8.93;8.03;;;;;;;7.44;65.98;100804.09;6110801;28;20231;-56
2020/12/14 08:47:21;;;;;;;8.50;7.70;;;;;;;7.39;65.90;100790.25;6105417;28;20244;-56
2020/12/14 08:50:42;;;;;;;9.40;8.17;;;;;;;7.28;66.38;100782.44;6120030;28;20232;-57
2020/12/14 08:54:11;;;;;;;8.87;7.87;;;;;;;7.36;66.24;100784.19;6106775;28;20238;-56
2020/12/14 08:57:32;;;;;;;12.67;9.23;;;;;;;7.40;66.26;100788.53;6093561;28;20247;-57
2020/12/14 09:00:53;;;;;;;12.57;8.77;;;;;;;7.44;66.09;100777.31;6113852;28;20616;-56
2020/12/14 09:04:14;;;;;;;8.50;7.60;;;;;;;7.56;65.77;100777.34;6109333;28;20231;-55
2020/12/14 09:07:36;;;;;;;9.73;8.57;;;;;;;7.59;65.43;100777.34;6096505;28;20240;-55
2020/12/14 09:10:57;;;;;;;10.77;9.07;;;;;;;7.47;66.01;100772.16;6112342;28;20236;-55
2020/12/14 09:14:20;;;;;;;8.87;7.10;;;;;;;7.75;65.34;100767.00;6110415;28;20243;-57
2020/12/14 09:17:42;;;;;;;8.93;8.03;;;;;;;7.36;66.38;100766.91;6097662;28;20323;-56
2020/12/14 09:21:04;;;;;;;8.10;7.40;;;;;;;7.46;66.42;100773.00;6106962;28;20232;-56
2020/12/14 09:24:25;;;;;;;8.93;8.03;;;;;;;7.75;65.50;100767.00;6107550;28;20223;-55
2020/12/14 09:27:46;;;;;;;7.80;7.07;;;;;;;7.51;66.45;100771.28;6103738;28;20511;-56
2020/12/14 09:31:09;;;;;;;8.83;8.00;;;;;;;7.68;65.87;100767.00;6107295;28;20587;-56
2020/12/14 09:34:31;;;;;;;8.90;8.10;;;;;;;7.49;66.31;100760.91;6106505;28;20613;-57
2020/12/14 09:37:52;;;;;;;9.73;6.97;;;;;;;7.48;66.19;100773.84;6097921;28;20239;-54
2020/12/14 09:41:13;;;;;;;8.77;7.33;;;;;;;7.69;65.87;100779.09;6097403;28;20335;-55
2020/12/14 09:44:34;;;;;;;12.07;7.67;;;;;;;7.79;65.28;100779.13;6106464;28;20227;-56
2020/12/14 09:47:54;;;;;;;9.63;8.67;;;;;;;7.67;65.89;100777.38;6089797;28;20496;-54
2020/12/14 09:51:16;;;;;;;8.70;7.10;;;;;;;7.72;65.54;100777.41;6109531;28;20236;-56
2020/12/14 09:54:36;;;;;;;8.47;7.17;;;;;;;7.98;65.00;100770.50;6114051;28;20244;-50
2020/12/14 09:57:57;;;;;;;8.03;7.23;;;;;;;8.13;64.37;100766.19;6102826;28;20572;-56
2020/12/14 10:01:17;;;;;;;7.67;6.97;;;;;;;7.88;65.62;100773.94;6114131;28;20235;-57
2020/12/14 10:04:38;;;;;;;7.77;6.13;;;;;;;7.91;65.82;100778.28;6107881;28;20235;-55
2020/12/14 10:07:59;;;;;;;5.50;5.00;;;;;;;7.64;66.93;100767.00;6101866;28;20311;-54
2020/12/14 10:11:23;;;;;;;5.20;4.70;;;;;;;7.92;66.37;100780.88;6105016;28;20235;-55
2020/12/14 10:14:44;;;;;;;5.63;5.13;;;;;;;7.72;67.88;100780.84;6095019;28;20231;-57
2020/12/14 10:18:05;;;;;;;5.77;4.97;;;;;;;7.89;67.57;100779.16;6104486;28;20530;-57
2020/12/14 10:21:25;;;;;;;9.47;5.47;;;;;;;7.82;68.27;100772.22;6114100;28;20985;-57
2020/12/14 10:24:47;;;;;;;6.07;4.80;;;;;;;7.78;68.89;100767.03;6108525;28;20709;-56
2020/12/14 10:28:07;;;;;;;5.57;4.60;;;;;;;7.82;68.55;100769.63;6102405;28;20318;-57
2020/12/14 10:31:28;;;;;;;6.37;5.80;;;;;;;7.90;68.95;100777.41;6110189;28;20952;-56
2020/12/14 10:34:49;;;;;;;6.53;5.43;;;;;;;7.99;68.78;100777.44;6124425;28;20239;-55
2020/12/14 10:38:09;;;;;;;5.40;4.90;;;;;;;7.88;69.26;100769.63;6097894;28;20588;-56
2020/12/14 10:41:30;;;;;;;7.77;6.70;;;;;;;7.96;69.18;100776.56;6110494;28;20232;-53
2020/12/14 10:44:51;;;;;;;5.47;4.97;;;;;;;7.91;69.69;100757.53;6114732;28;20232;-54
2020/12/14 10:48:12;;;;;;;6.27;5.20;;;;;;;7.72;70.95;100754.94;6093885;28;20239;-55
2020/12/14 10:51:32;;;;;;;10.47;7.17;;;;;;;7.69;71.26;100763.53;6108030;28;20228;-55
2020/12/14 10:54:53;;;;;;;5.60;5.07;;;;;;;7.72;71.30;100759.25;6108138;28;20560;-58
2020/12/14 10:58:15;;;;;;;7.00;5.77;;;;;;;7.95;70.37;100752.38;6102509;28;20239;-56
2020/12/14 11:01:35;;;;;;;6.00;5.20;;;;;;;7.74;71.48;100760.13;6110034;28;20588;-56
2020/12/14 11:04:55;;;;;;;8.00;5.90;;;;;;;7.86;71.13;100753.19;6109142;28;20220;-55
2020/12/14 11:08:16;;;;;;;5.57;5.03;;;;;;;7.52;72.88;100744.50;6111097;28;20259;-55
2020/12/14 11:11:36;;;;;;;8.57;6.10;;;;;;;7.62;72.34;100746.25;6119316;28;20239;-55
2020/12/14 11:14:58;;;;;;;6.83;6.13;;;;;;;7.56;73.05;100741.06;6117159;28;20239;-53
2020/12/14 11:18:18;;;;;;;7.50;6.00;;;;;;;7.82;72.01;100742.84;6103074;28;20254;-58
2020/12/14 11:21:39;;;;;;;6.27;5.67;;;;;;;7.88;71.98;100737.66;6110685;28;20228;-57
2020/12/14 11:25:00;;;;;;;7.03;5.43;;;;;;;7.96;71.23;100748.88;6111145;28;20303;-56
2020/12/14 11:28:21;;;;;;;7.43;5.73;;;;;;;8.08;70.73;100742.84;6106018;28;20271;-55
2020/12/14 11:31:43;;;;;;;6.50;5.13;;;;;;;7.98;71.27;100741.97;6109556;28;20239;-55
2020/12/14 11:35:04;;;;;;;6.03;5.53;;;;;;;8.01;71.27;100754.94;6113727;28;20232;-57
2020/12/14 11:38:24;;;;;;;7.50;4.97;;;;;;;7.82;72.06;100738.50;6109000;28;20231;-54
2020/12/14 11:41:48;;;;;;;11.17;5.63;;;;;;;8.06;71.64;100745.47;6114622;28;20232;-56
2020/12/14 11:45:10;;;;;;;6.37;4.50;;;;;;;8.09;71.31;100734.22;6118671;28;20243;-55
2020/12/14 11:48:31;;;;;;;10.07;6.03;;;;;;;8.15;71.13;100736.78;6103966;28;20239;-55
2020/12/14 11:51:53;;;;;;;7.73;5.93;;;;;;;8.34;70.52;100745.44;6109790;28;20231;-56
2020/12/14 11:55:13;;;;;;;6.20;5.50;;;;;;;8.43;69.89;100742.88;6117547;28;20240;-57
2020/12/14 11:58:34;;;;;;;8.80;5.37;;;;;;;8.47;70.07;100731.63;6105680;28;20744;-57
2020/12/14 12:01:55;;;;;;;6.90;5.37;;;;;;;8.41;70.26;100743.69;6111539;28;20235;-58
2020/12/14 12:05:16;;;;;;;7.90;4.60;;;;;;;8.09;71.45;100731.63;6106035;28;20256;-57
2020/12/14 12:08:37;;;;;;;8.10;5.27;;;;;;;8.18;71.69;100744.59;6113004;28;20246;-58
2020/12/14 12:11:58;;;;;;;6.40;4.60;;;;;;;8.20;71.09;100748.03;6105599;28;20247;-57
2020/12/14 12:15:18;;;;;;;6.10;5.13;;;;;;;8.38;70.98;100744.56;6108203;28;20248;-55
2020/12/14 12:18:39;;;;;;;9.40;5.80;;;;;;;8.34;70.62;100737.66;6102771;28;20240;-57
2020/12/14 12:22:01;;;;;;;6.40;4.90;;;;;;;8.27;71.23;100735.91;6105854;28;20232;-57
2020/12/14 12:25:22;;;;;;;6.67;4.57;;;;;;;8.61;74.09;100743.69;6106647;28;20236;-57
2020/12/14 12:28:43;;;;;;;5.77;5.03;;;;;;;8.76;70.00;100746.25;6106375;28;20247;-55
2020/12/14 12:32:03;;;;;;;5.63;5.13;;;;;;;8.46;71.16;100745.44;6100642;28;20235;-56
2020/12/14 12:35:24;;;;;;;6.13;4.53;;;;;;;8.33;71.38;100743.69;6106837;28;20327;-56
2020/12/14 12:38:45;;;;;;;5.00;4.60;;;;;;;8.30;71.45;100735.94;6104639;28;20798;-54
2020/12/14 12:42:06;;;;;;;4.90;4.50;;;;;;;8.29;71.87;100739.38;6111408;28;20235;-57
2020/12/14 12:45:26;;;;;;;9.17;4.93;;;;;;;8.61;70.25;100736.78;6108808;28;22002;-57
2020/12/14 12:48:47;;;;;;;7.87;4.40;;;;;;;8.73;70.41;100740.22;6105536;28;20523;-58
2020/12/14 12:52:07;;;;;;;19.57;5.33;;;;;;;8.77;70.08;100753.16;6103911;28;20238;-57
2020/12/14 12:55:28;;;;;;;7.00;3.80;;;;;;;8.61;70.63;100746.28;6111090;28;20232;-56
2020/12/14 12:58:49;;;;;;;6.33;4.70;;;;;;;8.52;71.23;100729.00;6098854;28;20239;-54
2020/12/14 13:02:10;;;;;;;6.40;4.60;;;;;;;8.41;71.48;100739.41;6102237;28;20232;-53
2020/12/14 13:05:30;;;;;;;13.17;5.67;;;;;;;8.27;72.78;100731.59;6099590;28;20231;-57
2020/12/14 13:08:51;;;;;;;8.03;4.97;;;;;;;8.33;72.72;100730.72;6102259;28;20227;-55
2020/12/14 13:12:12;;;;;;;7.87;4.43;;;;;;;8.44;72.50;100736.78;6111408;28;20559;-52
2020/12/14 13:15:33;;;;;;;6.67;4.83;;;;;;;8.55;72.17;100730.72;6111979;28;20512;-55
2020/12/14 13:18:54;;;;;;;15.33;7.00;;;;;;;8.39;72.64;100738.50;6116222;28;20231;-52
2020/12/14 13:22:14;;;;;;;5.27;4.17;;;;;;;8.58;72.05;100735.91;6112865;28;20561;-54
2020/12/14 13:25:34;;;;;;;7.10;5.23;;;;;;;8.79;72.07;100733.25;6112431;28;20232;-53
2020/12/14 13:28:56;;;;;;;6.10;4.30;;;;;;;8.57;72.50;100747.16;6108114;28;20326;-56
2020/12/14 13:32:16;;;;;;;4.47;4.03;;;;;;;8.82;71.88;100735.84;6111468;28;20241;-59
2020/12/14 13:35:36;;;;;;;11.17;5.43;;;;;;;8.94;71.53;100734.09;6110358;28;20555;-56
2020/12/14 13:38:57;;;;;;;4.97;4.47;;;;;;;8.99;71.20;100734.91;6102093;28;20223;-54
2020/12/14 13:42:18;;;;;;;5.97;5.37;;;;;;;9.17;70.40;100744.34;6109439;28;20227;-55
2020/12/14 13:45:39;;;;;;;9.40;6.03;;;;;;;9.04;71.68;100735.78;6110800;28;20265;-55
2020/12/14 13:48:59;;;;;;;5.57;4.53;;;;;;;9.02;71.24;100734.91;6115247;28;20235;-53
2020/12/14 13:52:22;;;;;;;6.90;4.30;;;;;;;9.01;71.69;100736.63;6108432;28;20231;-55
2020/12/14 13:55:42;;;;;;;10.47;4.43;;;;;;;9.03;71.44;100739.22;6116108;28;20236;-54
2020/12/14 13:59:02;;;;;;;5.63;4.33;;;;;;;8.92;71.81;100728.00;6099697;28;20549;-56
2020/12/14 14:02:24;;;;;;;6.87;4.47;;;;;;;8.99;71.70;100730.56;6085237;28;20228;-57
2020/12/14 14:05:45;;;;;;;4.90;4.37;;;;;;;9.14;71.62;100736.59;6116837;28;20235;-56
2020/12/14 14:09:06;;;;;;;5.87;3.57;;;;;;;9.31;71.79;100739.13;6105491;28;20318;-55
2020/12/14 14:12:26;;;;;;;7.10;4.57;;;;;;;9.40;70.51;100745.13;6095694;28;20231;-57
2020/12/14 14:15:47;;;;;;;5.30;4.37;;;;;;;9.50;70.06;100740.75;6110205;28;20260;-56
2020/12/14 14:19:08;;;;;;;5.07;4.67;;;;;;;9.32;71.02;100746.03;6099639;28;22527;-55
2020/12/14 14:22:29;;;;;;;5.20;4.23;;;;;;;9.42;70.44;100752.91;6094439;28;20237;-54
2020/12/14 14:25:49;;;;;;;5.73;4.53;;;;;;;9.46;70.91;100754.63;6123281;28;20232;-57
2020/12/14 14:29:10;;;;;;;6.73;4.80;;;;;;;9.33;70.55;100755.56;6115300;28;20239;-53
2020/12/14 14:32:31;;;;;;;5.73;4.30;;;;;;;9.42;70.81;100758.09;6116157;28;20232;-53
2020/12/14 14:35:52;;;;;;;6.10;4.53;;;;;;;9.26;71.57;100759.91;6097911;28;20239;-56
2020/12/14 14:39:14;;;;;;;6.93;5.43;;;;;;;9.45;70.82;100768.50;6113479;28;20357;-57
2020/12/14 14:42:34;;;;;;;5.03;4.40;;;;;;;9.65;70.43;100774.47;6097797;28;20871;-52
2020/12/14 14:45:55;;;;;;;5.70;5.00;;;;;;;9.64;70.24;100780.53;6120377;28;20311;-57
2020/12/14 14:49:16;;;;;;;5.53;4.83;;;;;;;9.73;69.92;100777.00;6103078;28;20228;-55
2020/12/14 14:52:37;;;;;;;7.53;5.47;;;;;;;9.87;69.60;100782.13;6100302;28;20243;-56
2020/12/14 14:55:58;;;;;;;8.00;6.00;;;;;;;9.79;69.83;100794.28;6110023;28;20240;-55
2020/12/14 14:59:18;;;;;;;7.37;5.23;;;;;;;9.75;69.50;100797.78;6097515;28;20580;-54
2020/12/14 15:02:39;;;;;;;7.45;5.82;;;;;;;9.64;70.70;100793.53;6082919;28;20734;-50
2020/12/14 15:05:59;;;;;;;8.53;6.10;;;;;;;9.74;70.13;100796.94;6125938;28;20875;-52
2020/12/14 15:09:21;;;;;;;8.40;6.57;;;;;;;9.68;70.58;100798.72;6101325;29;20376;-55
2020/12/14 15:12:43;;;;;;;9.00;7.13;;;;;;;9.61;71.48;100796.13;6111940;28;20236;-52
2020/12/14 15:16:03;;;;;;;8.27;6.43;;;;;;;9.55;71.58;100806.56;6120018;28;20240;-56
2020/12/14 15:19:23;;;;;;;6.57;5.13;;;;;;;9.64;71.58;100800.47;6113598;28;20242;-53
2020/12/14 15:22:45;;;;;;;9.73;6.97;;;;;;;9.77;70.82;100804.72;6106424;28;20684;-59
2020/12/14 15:26:06;;;;;;;8.37;6.13;;;;;;;9.85;71.58;100802.09;6112670;28;20662;-57
2020/12/14 15:29:27;;;;;;;8.83;5.80;;;;;;;9.78;70.91;100797.78;6124269;28;20575;-51
2020/12/14 15:32:47;;;;;;;7.60;5.50;;;;;;;9.80;71.35;100809.03;6097146;28;20591;-56
2020/12/14 15:36:15;;;;;;;7.43;6.07;;;;;;;10.00;70.17;100808.91;6122140;28;20626;-55